Time;durP1;ratioP1;P1;durP2;ratioP2;P2;SDS_P1;SDS_P2;PMS_P1;PMS_P2;Temp;Humidity;BMP_temperature;BMP_pressure;BME280_temperature;BME280_humidity;BME280_pressure;Samples;Min_cycle;Max_cycle;Signal;HPM_P1;HPM_P2
2023/11/07 00:01:04;;;;;;;2.60;2.40;;;;;;;4.18;100.00;97007.19;5019546;28;20409;-80
2023/11/07 00:03:31;;;;;;;2.80;2.60;;;;;;;4.16;100.00;97003.16;5019042;28;20742;-80
2023/11/07 00:05:57;;;;;;;3.55;2.72;;;;;;;4.14;100.00;97010.44;5022737;28;20407;-79
2023/11/07 00:08:23;;;;;;;3.20;2.80;;;;;;;4.13;100.00;97014.09;5021599;28;20451;-79
2023/11/07 00:10:49;;;;;;;3.25;2.65;;;;;;;4.12;100.00;97008.06;5019818;28;20408;-79
2023/11/07 00:13:17;;;;;;;3.67;2.88;;;;;;;4.12;100.00;97017.75;5018263;28;20421;-80
2023/11/07 00:15:43;;;;;;;3.17;2.75;;;;;;;4.11;100.00;97018.75;5019221;28;20404;-80
2023/11/07 00:18:09;;;;;;;3.38;2.70;;;;;;;4.11;100.00;97016.13;5018356;28;20400;-80
2023/11/07 00:20:35;;;;;;;4.65;3.10;;;;;;;4.10;100.00;97017.16;5017978;28;20404;-80
2023/11/07 00:23:01;;;;;;;3.10;2.50;;;;;;;4.08;100.00;97017.38;5018616;28;20436;-80
2023/11/07 00:25:27;;;;;;;4.65;3.00;;;;;;;4.07;100.00;97026.22;5018700;28;20420;-80
2023/11/07 00:27:53;;;;;;;4.05;2.75;;;;;;;4.06;100.00;97019.41;5021857;28;20474;-80
2023/11/07 00:30:21;;;;;;;3.72;2.90;;;;;;;4.04;100.00;97021.44;5017876;28;20893;-80
2023/11/07 00:32:47;;;;;;;4.28;2.78;;;;;;;4.03;100.00;97029.53;5025396;28;20411;-79
2023/11/07 00:35:13;;;;;;;3.20;2.85;;;;;;;4.00;100.00;97022.09;5037320;28;20501;-79
2023/11/07 00:37:40;;;;;;;4.28;2.90;;;;;;;3.96;100.00;97024.34;5038304;28;20418;-80
2023/11/07 00:40:09;;;;;;;3.20;2.90;;;;;;;3.96;100.00;97020.94;5037100;28;20517;-79
2023/11/07 00:42:35;;;;;;;3.25;2.70;;;;;;;3.94;100.00;97028.19;5038288;28;20501;-79
2023/11/07 00:45:02;;;;;;;4.45;2.90;;;;;;;3.92;100.00;97022.38;5022650;28;20459;-79
2023/11/07 00:47:29;;;;;;;3.55;2.90;;;;;;;3.92;100.00;97022.38;5022166;28;20432;-79
2023/11/07 00:49:55;;;;;;;3.00;2.65;;;;;;;3.90;100.00;97025.22;5022999;28;20407;-80
2023/11/07 00:52:22;;;;;;;3.25;2.45;;;;;;;3.87;100.00;97025.66;5017938;28;20405;-79
2023/11/07 00:54:48;;;;;;;2.90;2.50;;;;;;;3.84;100.00;97028.69;5018317;28;20417;-80
2023/11/07 00:57:16;;;;;;;3.00;2.65;;;;;;;3.82;100.00;97028.13;5019031;28;20504;-80
2023/11/07 00:59:42;;;;;;;3.20;2.90;;;;;;;3.80;100.00;97030.16;5018591;28;20572;-79
2023/11/07 01:02:08;;;;;;;3.47;2.80;;;;;;;3.78;100.00;97022.50;5018928;28;20397;-79
2023/11/07 01:04:36;;;;;;;5.28;3.08;;;;;;;3.78;100.00;97025.13;5018623;28;20416;-79
2023/11/07 01:07:03;;;;;;;3.33;3.03;;;;;;;3.76;100.00;97035.00;5018605;28;20521;-79
2023/11/07 01:09:29;;;;;;;6.28;3.35;;;;;;;3.73;100.00;97027.59;5018672;28;20411;-80
2023/11/07 01:11:55;;;;;;;3.83;3.30;;;;;;;3.73;100.00;97027.59;5017881;28;20452;-79
2023/11/07 01:14:21;;;;;;;3.72;3.30;;;;;;;3.71;100.00;97029.63;5016912;28;20931;-79
2023/11/07 01:16:47;;;;;;;3.92;2.90;;;;;;;3.70;100.00;97035.06;5016853;28;20877;-79
2023/11/07 01:19:14;;;;;;;3.65;2.92;;;;;;;3.67;100.00;97036.31;5017047;28;20781;-80
2023/11/07 01:21:42;;;;;;;3.03;2.55;;;;;;;3.67;100.00;97046.00;5016747;28;20404;-79
2023/11/07 01:24:10;;;;;;;3.88;2.85;;;;;;;3.63;100.00;97040.38;5016688;28;20459;-78
2023/11/07 01:26:36;;;;;;;4.30;2.95;;;;;;;3.62;100.00;97037.97;5016908;28;20766;-79
2023/11/07 01:29:02;;;;;;;4.72;3.17;;;;;;;3.61;100.00;97041.63;5016568;28;20778;-79
2023/11/07 01:31:28;;;;;;;4.10;3.00;;;;;;;3.61;100.00;97041.63;5016533;28;20417;-79
2023/11/07 01:33:55;;;;;;;4.47;3.22;;;;;;;3.60;100.00;97040.03;5031882;28;20469;-79
2023/11/07 01:36:22;;;;;;;3.85;3.03;;;;;;;3.60;100.00;97037.41;5035706;28;20510;-79
2023/11/07 01:38:49;;;;;;;3.13;2.80;;;;;;;3.59;100.00;97033.19;5036930;28;20717;-80
2023/11/07 01:41:15;;;;;;;3.30;2.95;;;;;;;3.57;100.00;97040.44;5037244;28;20437;-79
2023/11/07 01:43:41;;;;;;;3.58;3.20;;;;;;;3.55;100.00;97035.41;5032568;28;20826;-79
2023/11/07 01:46:09;;;;;;;3.92;3.20;;;;;;;3.55;100.00;97038.03;5016984;28;20857;-79
2023/11/07 01:48:36;;;;;;;4.40;3.35;;;;;;;3.52;100.00;97030.63;5029366;28;20944;-79
2023/11/07 01:51:03;;;;;;;4.00;3.03;;;;;;;3.51;100.00;97029.03;5038839;28;20418;-79
2023/11/07 01:53:30;;;;;;;4.27;3.30;;;;;;;3.49;100.00;97028.44;5039906;28;20399;-79
2023/11/07 01:55:58;;;;;;;4.55;3.30;;;;;;;3.49;100.00;97039.69;5039799;28;20552;-79
2023/11/07 01:58:26;;;;;;;3.53;3.22;;;;;;;3.45;100.00;97030.69;5039763;28;20422;-79
2023/11/07 02:00:54;;;;;;;6.25;3.45;;;;;;;3.46;100.00;97037.50;5039545;28;20425;-79
2023/11/07 02:03:21;;;;;;;3.70;3.30;;;;;;;3.44;100.00;97034.31;5041295;28;20717;-79
2023/11/07 02:05:47;;;;;;;3.47;3.07;;;;;;;3.40;100.00;97027.09;5039582;28;20900;-79
2023/11/07 02:08:13;;;;;;;3.50;3.00;;;;;;;3.39;100.00;97028.91;5039679;28;20725;-79
2023/11/07 02:10:40;;;;;;;3.80;2.97;;;;;;;3.37;100.00;97032.78;5038601;28;20423;-79
2023/11/07 02:13:08;;;;;;;4.63;3.47;;;;;;;3.34;100.00;97026.13;5038914;28;20779;-79
2023/11/07 02:15:35;;;;;;;4.47;3.15;;;;;;;3.32;100.00;97025.53;5038939;28;20457;-79
2023/11/07 02:18:01;;;;;;;3.67;3.22;;;;;;;3.34;100.00;97026.13;5039415;28;20484;-79
2023/11/07 02:20:29;;;;;;;4.80;3.40;;;;;;;3.36;100.00;97042.44;5047279;28;20403;-79
2023/11/07 02:23:02;;;;;;;4.23;3.10;;;;;;;3.37;100.00;97040.63;5046797;28;20405;-79
2023/11/07 02:25:30;;;;;;;4.07;3.28;;;;;;;3.39;100.00;97041.19;5039187;28;20458;-79
2023/11/07 02:27:56;;;;;;;4.93;3.30;;;;;;;3.40;100.00;97048.81;5039595;28;20413;-79
2023/11/07 02:30:22;;;;;;;4.07;3.13;;;;;;;3.39;100.00;97041.97;5039673;28;20394;-79
2023/11/07 02:32:48;;;;;;;3.83;3.40;;;;;;;3.39;100.00;97041.97;5033652;28;20440;-78
2023/11/07 02:35:15;;;;;;;5.22;3.33;;;;;;;3.38;100.00;97044.84;5022510;28;20438;-79
2023/11/07 02:37:41;;;;;;;4.10;3.20;;;;;;;3.36;100.00;97041.63;5019720;28;20400;-79
2023/11/07 02:40:10;;;;;;;3.78;3.00;;;;;;;3.35;100.00;97040.81;5019558;28;20448;-79
2023/11/07 02:42:38;;;;;;;4.00;3.20;;;;;;;3.34;100.00;97044.44;5019994;28;20499;-79
2023/11/07 02:45:05;;;;;;;3.20;2.90;;;;;;;3.32;100.00;97045.66;5033747;28;20407;-79
2023/11/07 02:47:32;;;;;;;6.72;3.83;;;;;;;3.30;100.00;97042.47;5037857;28;20399;-79
2023/11/07 02:49:58;;;;;;;3.10;2.80;;;;;;;3.33;100.00;97040.22;5041427;28;20914;-79
2023/11/07 02:52:25;;;;;;;6.75;3.40;;;;;;;3.35;100.00;97048.69;5038863;28;20475;-79
2023/11/07 02:54:52;;;;;;;7.38;3.20;;;;;;;3.39;100.00;97041.19;5038703;28;20466;-79
2023/11/07 02:57:18;;;;;;;3.60;2.88;;;;;;;3.44;100.00;97036.13;5039081;28;20407;-79
2023/11/07 02:59:49;;;;;;;3.40;3.10;;;;;;;3.49;100.00;97031.03;5038606;28;20859;-79
2023/11/07 03:02:17;;;;;;;3.22;2.92;;;;;;;3.55;100.00;97026.75;5037958;28;20454;-79
2023/11/07 03:04:44;;;;;;;4.15;3.25;;;;;;;3.60;100.00;97035.59;5038439;28;20446;-79
2023/11/07 03:07:10;;;;;;;4.63;3.42;;;;;;;3.61;100.00;97034.53;5039313;28;20422;-79
2023/11/07 03:09:37;;;;;;;5.90;3.23;;;;;;;3.63;100.00;97034.34;5038854;28;20407;-79
2023/11/07 03:12:04;;;;;;;3.60;3.00;;;;;;;3.65;100.00;97034.94;5038221;28;20433;-79
2023/11/07 03:14:30;;;;;;;3.10;2.80;;;;;;;3.62;100.00;97033.53;5038155;28;20419;-79
2023/11/07 03:16:57;;;;;;;3.83;2.87;;;;;;;3.60;100.00;97032.97;5039250;28;20427;-79
2023/11/07 03:19:24;;;;;;;4.23;3.27;;;;;;;3.55;100.00;97032.78;5039435;28;20487;-79
2023/11/07 03:21:50;;;;;;;3.88;3.08;;;;;;;3.53;100.00;97031.44;5039345;28;20966;-79
2023/11/07 03:24:17;;;;;;;3.67;2.65;;;;;;;3.48;100.00;97032.84;5038757;28;20426;-79
2023/11/07 03:26:44;;;;;;;4.30;2.95;;;;;;;3.44;100.00;97030.91;5019738;28;20418;-79
2023/11/07 03:29:10;;;;;;;4.63;3.08;;;;;;;3.40;100.00;97029.72;5038394;28;20399;-79
2023/11/07 03:31:36;;;;;;;3.88;3.03;;;;;;;3.37;100.00;97028.34;5038192;28;20407;-79
2023/11/07 03:34:04;;;;;;;7.07;3.42;;;;;;;3.34;100.00;97031.38;5021601;28;20496;-79
2023/11/07 03:36:30;;;;;;;4.53;3.33;;;;;;;3.31;100.00;97026.56;5018413;28;20757;-79
2023/11/07 03:38:56;;;;;;;5.35;3.17;;;;;;;3.29;100.00;97033.84;5018856;28;20401;-79
2023/11/07 03:41:24;;;;;;;5.23;2.93;;;;;;;3.28;100.00;97042.69;5018005;28;20444;-79
2023/11/07 03:43:50;;;;;;;4.45;2.78;;;;;;;3.28;100.00;97036.66;5023273;28;20403;-79
2023/11/07 03:46:16;;;;;;;4.03;2.90;;;;;;;3.26;100.00;97042.09;5038805;28;20916;-79
2023/11/07 03:48:44;;;;;;;3.90;2.90;;;;;;;3.27;100.00;97037.66;5038361;28;20409;-79
2023/11/07 03:51:11;;;;;;;3.80;2.90;;;;;;;3.27;100.00;97040.28;5038173;28;20422;-80
2023/11/07 03:53:37;;;;;;;3.83;2.83;;;;;;;3.26;100.00;97036.88;5038417;28;20469;-79
2023/11/07 03:56:04;;;;;;;4.43;3.00;;;;;;;3.26;100.00;97038.69;5038343;28;20406;-79
2023/11/07 03:58:30;;;;;;;4.60;2.70;;;;;;;3.26;100.00;97038.69;5041221;28;20494;-79
2023/11/07 04:00:57;;;;;;;4.38;3.00;;;;;;;3.26;100.00;97051.75;5037265;28;20395;-79
2023/11/07 04:03:23;;;;;;;3.00;2.70;;;;;;;3.26;100.00;97038.69;5037051;28;20410;-79
2023/11/07 04:05:49;;;;;;;3.20;2.70;;;;;;;3.26;100.00;97046.53;5036840;28;20406;-79
2023/11/07 04:08:17;;;;;;;4.90;3.08;;;;;;;3.28;100.00;97040.06;5037393;28;20403;-79
2023/11/07 04:10:44;;;;;;;4.03;3.25;;;;;;;3.28;100.00;97047.94;5038268;28;20403;-79
2023/11/07 04:13:10;;;;;;;4.30;2.80;;;;;;;3.29;100.00;97049.53;5036882;28;20399;-79
2023/11/07 04:15:36;;;;;;;3.03;2.70;;;;;;;3.27;100.00;97048.13;5037188;28;20919;-79
2023/11/07 04:18:03;;;;;;;4.10;2.78;;;;;;;3.25;100.00;97047.53;5037259;28;20402;-79
2023/11/07 04:20:29;;;;;;;4.32;2.97;;;;;;;3.22;100.00;97050.59;5036295;28;20437;-79
2023/11/07 04:22:56;;;;;;;3.25;2.83;;;;;;;3.19;100.00;97049.19;5036722;28;20406;-79
2023/11/07 04:25:24;;;;;;;8.63;3.50;;;;;;;3.15;100.00;97049.84;5036466;28;20410;-79
2023/11/07 04:27:50;;;;;;;3.95;3.10;;;;;;;3.13;100.00;97044.81;5036701;28;20754;-78
2023/11/07 04:30:17;;;;;;;3.70;3.00;;;;;;;3.11;100.00;97049.44;5036320;28;20391;-79
2023/11/07 04:32:43;;;;;;;4.60;3.08;;;;;;;3.10;100.00;97051.25;5030655;28;20456;-79
2023/11/07 04:35:11;;;;;;;4.40;3.10;;;;;;;3.10;100.00;97055.69;5016408;28;20459;-79
2023/11/07 04:37:37;;;;;;;3.40;3.00;;;;;;;3.06;100.00;97052.72;5016516;28;20442;-79
2023/11/07 04:40:05;;;;;;;3.00;2.70;;;;;;;3.05;100.00;97052.91;5016454;28;20405;-79
2023/11/07 04:42:32;;;;;;;3.08;2.70;;;;;;;3.02;100.00;97037.63;5016734;28;20435;-79
2023/11/07 04:44:59;;;;;;;4.07;2.78;;;;;;;2.99;100.00;97045.91;5030966;28;20457;-79
2023/11/07 04:47:26;;;;;;;4.00;3.03;;;;;;;2.98;100.00;97028.63;5036348;28;20402;-78
2023/11/07 04:49:52;;;;;;;3.85;3.15;;;;;;;2.96;100.00;97035.88;5035768;28;20391;-79
2023/11/07 04:52:19;;;;;;;3.75;2.95;;;;;;;2.94;100.00;97030.84;5031851;28;20941;-79
2023/11/07 04:54:45;;;;;;;4.57;3.30;;;;;;;2.92;100.00;97040.75;5028622;28;20511;-79
2023/11/07 04:57:11;;;;;;;5.43;3.53;;;;;;;2.90;100.00;97032.28;5033813;28;20434;-80
2023/11/07 04:59:39;;;;;;;3.65;3.22;;;;;;;2.88;100.00;97036.13;5027112;28;20399;-80
2023/11/07 05:02:06;;;;;;;4.53;3.00;;;;;;;2.86;100.00;97038.94;5030625;28;20434;-80
2023/11/07 05:04:33;;;;;;;3.83;2.70;;;;;;;2.83;100.00;97028.94;5025865;28;20409;-79
2023/11/07 05:06:59;;;;;;;3.45;2.95;;;;;;;2.83;100.00;97043.81;5028913;28;20441;-79
2023/11/07 05:09:26;;;;;;;4.72;3.00;;;;;;;2.80;100.00;97031.16;5020377;28;20449;-80
2023/11/07 05:11:52;;;;;;;5.40;3.25;;;;;;;2.77;100.00;97032.38;5029589;28;20425;-78
2023/11/07 05:14:19;;;;;;;4.03;3.13;;;;;;;2.76;100.00;97033.41;5025099;28;20465;-79
2023/11/07 05:16:47;;;;;;;3.55;3.00;;;;;;;2.76;100.00;97037.81;5028245;28;20394;-79
2023/11/07 05:19:14;;;;;;;3.50;3.03;;;;;;;2.75;100.00;97041.44;5007726;28;20406;-78
2023/11/07 05:21:41;;;;;;;3.70;3.22;;;;;;;2.73;100.00;97044.25;5026214;28;20750;-78
2023/11/07 05:24:08;;;;;;;5.00;3.22;;;;;;;2.73;100.00;97042.44;5021302;28;20492;-79
2023/11/07 05:26:35;;;;;;;5.75;3.17;;;;;;;2.74;100.00;97038.03;5035114;28;20391;-79
2023/11/07 05:29:01;;;;;;;3.97;3.38;;;;;;;2.78;100.00;97048.88;5041082;28;20398;-80
2023/11/07 05:31:27;;;;;;;3.70;3.10;;;;;;;2.80;100.00;97044.22;5024002;28;20408;-79
2023/11/07 05:33:54;;;;;;;3.53;3.10;;;;;;;2.80;100.00;97050.25;5037120;28;20406;-79
2023/11/07 05:36:21;;;;;;;4.17;3.40;;;;;;;2.80;100.00;97046.81;5039276;28;20494;-79
2023/11/07 05:38:47;;;;;;;4.13;3.28;;;;;;;2.85;100.00;97044.41;5041564;28;20407;-80
2023/11/07 05:41:14;;;;;;;4.72;3.67;;;;;;;2.88;100.00;97042.16;5039224;28;20776;-79
2023/11/07 05:43:40;;;;;;;4.25;3.50;;;;;;;2.91;100.00;97035.72;5035652;28;20399;-79
2023/11/07 05:46:08;;;;;;;4.45;3.47;;;;;;;2.89;100.00;97048.19;5021238;28;20397;-81
2023/11/07 05:48:36;;;;;;;5.45;3.67;;;;;;;2.89;100.00;97046.38;5031717;28;21063;-79
2023/11/07 05:51:03;;;;;;;3.85;3.33;;;;;;;2.88;100.00;97044.78;5029946;28;20474;-79
2023/11/07 05:53:30;;;;;;;5.60;3.40;;;;;;;2.87;100.00;97043.16;5035326;28;20407;-78
2023/11/07 05:55:56;;;;;;;3.23;2.87;;;;;;;2.88;100.00;97046.59;5022421;28;20428;-78
2023/11/07 05:58:22;;;;;;;3.73;3.13;;;;;;;2.87;100.00;97040.56;5019299;28;20472;-79
2023/11/07 06:00:48;;;;;;;3.40;2.88;;;;;;;2.88;100.00;97044.78;5018979;28;20411;-79
2023/11/07 06:03:15;;;;;;;4.93;3.10;;;;;;;2.89;100.00;97045.56;5020936;28;20859;-79
2023/11/07 06:05:45;;;;;;;5.00;3.30;;;;;;;2.87;100.00;97043.16;5039047;28;20521;-79
2023/11/07 06:08:12;;;;;;;4.50;3.30;;;;;;;2.89;100.00;97056.03;5039585;28;20402;-79
2023/11/07 06:10:38;;;;;;;3.88;3.20;;;;;;;2.86;100.00;97048.59;5038759;28;20454;-79
2023/11/07 06:13:05;;;;;;;3.63;3.17;;;;;;;2.84;100.00;97059.28;5038993;28;20395;-78
2023/11/07 06:15:31;;;;;;;4.68;3.30;;;;;;;2.84;100.00;97053.25;5038055;28;20422;-79
2023/11/07 06:17:58;;;;;;;4.22;3.20;;;;;;;2.82;100.00;97058.69;5039823;28;20410;-79
2023/11/07 06:20:24;;;;;;;4.32;3.00;;;;;;;2.81;100.00;97064.91;5038940;28;20399;-78
2023/11/07 06:22:50;;;;;;;8.88;4.30;;;;;;;2.78;100.00;97070.59;5038927;28;20403;-79
2023/11/07 06:25:19;;;;;;;4.90;3.70;;;;;;;2.79;100.00;97073.97;5038717;28;20410;-79
2023/11/07 06:27:47;;;;;;;5.63;3.67;;;;;;;2.78;100.00;97075.81;5038467;28;20884;-79
2023/11/07 06:30:16;;;;;;;6.32;3.80;;;;;;;2.77;100.00;97082.03;5038638;28;20422;-79
2023/11/07 06:32:42;;;;;;;5.88;3.80;;;;;;;2.77;100.00;97082.03;5033380;28;20397;-79
2023/11/07 06:35:09;;;;;;;4.05;3.42;;;;;;;2.77;100.00;97076.81;5018621;28;20428;-79
2023/11/07 06:37:35;;;;;;;6.90;3.75;;;;;;;2.78;100.00;97081.03;5018645;28;20407;-79
2023/11/07 06:40:04;;;;;;;6.80;3.53;;;;;;;2.83;100.00;97080.41;5019033;28;20400;-79
2023/11/07 06:42:33;;;;;;;6.33;4.30;;;;;;;2.86;100.00;97085.19;5019245;28;20404;-79
2023/11/07 06:44:59;;;;;;;8.90;4.23;;;;;;;2.89;100.00;97085.59;5033524;28;20455;-79
2023/11/07 06:47:25;;;;;;;6.50;4.00;;;;;;;2.94;100.00;97088.38;5038389;28;20391;-79
2023/11/07 06:49:51;;;;;;;5.03;3.78;;;;;;;3.02;100.00;97087.31;5039083;28;20391;-79
2023/11/07 06:52:17;;;;;;;5.27;3.50;;;;;;;3.12;100.00;97087.66;5041647;28;20558;-79
2023/11/07 06:54:43;;;;;;;8.20;4.25;;;;;;;3.20;100.00;97084.00;5041917;28;20419;-79
2023/11/07 06:57:10;;;;;;;5.53;4.28;;;;;;;3.28;100.00;97083.75;5042908;28;20414;-79
2023/11/07 06:59:37;;;;;;;5.47;4.07;;;;;;;3.34;100.00;97082.88;5040351;28;20406;-79
2023/11/07 07:02:03;;;;;;;6.38;4.20;;;;;;;3.39;100.00;97086.47;5039167;28;20399;-79
2023/11/07 07:04:30;;;;;;;5.72;3.95;;;;;;;3.44;100.00;97084.03;5040859;28;20402;-79
2023/11/07 07:06:56;;;;;;;5.32;3.78;;;;;;;3.47;100.00;97088.81;5040102;28;20490;-79
2023/11/07 07:09:22;;;;;;;6.32;3.78;;;;;;;3.47;100.00;97086.19;5043345;28;20410;-79
2023/11/07 07:11:48;;;;;;;6.88;3.90;;;;;;;3.49;100.00;97086.00;5042589;28;20882;-80
2023/11/07 07:14:15;;;;;;;4.93;3.78;;;;;;;3.50;100.00;97082.38;5043063;28;20415;-79
2023/11/07 07:16:43;;;;;;;6.60;4.10;;;;;;;3.55;100.00;97094.78;5040237;28;20399;-79
2023/11/07 07:19:09;;;;;;;4.65;3.75;;;;;;;3.58;100.00;97089.16;5040591;28;20940;-79
2023/11/07 07:21:35;;;;;;;5.40;3.95;;;;;;;3.64;100.00;97096.13;5038998;28;20956;-79
2023/11/07 07:24:15;;;;;;;6.47;4.75;;;;;;;3.69;100.00;97085.81;5038584;28;20486;-79
2023/11/07 07:26:43;;;;;;;8.00;4.93;;;;;;;3.78;100.00;97097.63;5040958;28;20472;-80
2023/11/07 07:29:13;;;;;;;7.93;5.00;;;;;;;3.85;100.00;97103.59;5041917;28;20395;-81
2023/11/07 07:31:39;;;;;;;7.50;4.90;;;;;;;3.92;100.00;97090.44;5041672;28;20497;-81
2023/11/07 07:34:06;;;;;;;6.57;4.95;;;;;;;4.04;100.00;97101.84;5023449;28;20909;-80
2023/11/07 07:36:42;;;;;;;6.75;4.65;;;;;;;4.16;100.00;97106.13;5022916;28;20400;-80
2023/11/07 07:39:09;;;;;;;6.43;4.70;;;;;;;4.27;100.00;97105.44;5020318;28;20493;-78
2023/11/07 07:41:36;;;;;;;6.17;4.47;;;;;;;4.37;100.00;97104.09;5019997;28;20407;-79
2023/11/07 07:44:03;;;;;;;7.43;4.60;;;;;;;4.43;100.00;97105.88;5027066;28;20440;-80
2023/11/07 07:46:31;;;;;;;5.50;3.97;;;;;;;4.51;100.00;97111.59;5040381;28;20399;-81
2023/11/07 07:48:57;;;;;;;5.40;4.30;;;;;;;4.62;100.00;97105.63;5039060;28;20748;-79
2023/11/07 07:51:25;;;;;;;5.05;4.10;;;;;;;4.76;100.00;97108.09;5038669;28;20943;-79
2023/11/07 07:53:53;;;;;;;4.80;3.70;;;;;;;4.88;100.00;97111.59;5038887;28;20399;-79
2023/11/07 07:56:19;;;;;;;5.20;3.83;;;;;;;5.01;100.00;97109.59;5039213;28;20443;-80
2023/11/07 07:58:45;;;;;;;6.25;3.80;;;;;;;5.13;100.00;97108.81;5040866;28;20401;-79
2023/11/07 08:01:12;;;;;;;5.43;3.70;;;;;;;5.24;100.00;97108.06;5041951;28;20813;-80
2023/11/07 08:03:38;;;;;;;7.00;4.18;;;;;;;5.28;100.00;97104.75;5039768;28;20422;-83
2023/11/07 08:06:05;;;;;;;6.25;3.60;;;;;;;5.37;100.00;97105.25;5039082;28;20435;-79
2023/11/07 08:08:32;;;;;;;4.68;3.60;;;;;;;5.47;100.00;97096.81;5038738;28;20526;-79
2023/11/07 08:10:59;;;;;;;5.20;3.35;;;;;;;5.55;100.00;97101.75;5040890;28;20891;-79
2023/11/07 08:13:25;;;;;;;3.90;3.08;;;;;;;5.63;100.00;97089.09;5038746;28;20748;-78
2023/11/07 08:15:51;;;;;;;8.25;3.45;;;;;;;5.69;100.00;97096.06;5038571;28;20451;-79
2023/11/07 08:18:17;;;;;;;4.53;3.10;;;;;;;5.80;100.00;97097.88;5039197;28;20414;-79
2023/11/07 08:20:45;;;;;;;7.32;3.58;;;;;;;5.85;100.00;97097.22;5037526;28;20404;-79
2023/11/07 08:23:11;;;;;;;3.83;3.00;;;;;;;5.93;100.00;97099.53;5038000;28;20402;-80
2023/11/07 08:25:39;;;;;;;3.37;2.60;;;;;;;6.01;100.00;97096.56;5039035;28;20441;-80
2023/11/07 08:28:09;;;;;;;3.80;2.40;;;;;;;6.19;100.00;97106.13;5028355;28;20415;-79
2023/11/07 08:30:38;;;;;;;3.72;2.30;;;;;;;6.35;100.00;97102.00;5036376;28;20486;-79
2023/11/07 08:33:04;;;;;;;3.40;2.30;;;;;;;6.51;100.00;97107.38;5028234;28;20409;-79
2023/11/07 08:35:31;;;;;;;2.92;2.20;;;;;;;6.61;100.00;97102.28;5020630;28;20417;-80
2023/11/07 08:37:57;;;;;;;2.55;2.00;;;;;;;6.61;100.00;97107.56;5020346;28;20404;-79
2023/11/07 08:40:23;;;;;;;5.65;2.30;;;;;;;6.57;100.00;97103.81;5018193;28;20753;-79
2023/11/07 08:42:51;;;;;;;3.08;1.83;;;;;;;6.65;100.00;97107.09;5018878;28;20416;-79
2023/11/07 08:45:19;;;;;;;1.90;1.70;;;;;;;6.68;100.00;97104.81;5035306;28;20403;-80
2023/11/07 08:47:47;;;;;;;6.50;2.08;;;;;;;6.64;100.00;97105.50;5037471;28;20422;-79
2023/11/07 08:50:14;;;;;;;3.42;1.73;;;;;;;6.75;100.00;97112.56;5039282;28;20399;-79
2023/11/07 08:52:40;;;;;;;2.40;1.52;;;;;;;6.83;100.00;97117.47;5041592;28;20449;-79
2023/11/07 08:55:08;;;;;;;1.85;1.63;;;;;;;6.93;100.00;97118.44;5041536;28;20419;-80
2023/11/07 08:57:38;;;;;;;1.50;1.30;;;;;;;7.00;100.00;97113.03;5041459;28;20418;-79
2023/11/07 09:00:12;;;;;;;1.40;1.30;;;;;;;7.03;100.00;97112.59;5042327;28;20407;-80
2023/11/07 09:02:38;;;;;;;1.73;1.40;;;;;;;7.00;100.00;97108.59;5042775;28;20405;-79
2023/11/07 09:05:06;;;;;;;1.23;1.10;;;;;;;6.93;100.00;97118.44;5045154;28;20755;-79
2023/11/07 09:07:33;;;;;;;1.30;1.20;;;;;;;6.88;100.00;97126.25;5046851;28;20462;-80
2023/11/07 09:10:00;;;;;;;1.38;1.20;;;;;;;6.89;100.00;97124.44;5047345;28;20429;-79
2023/11/07 09:12:26;;;;;;;2.20;1.13;;;;;;;6.93;100.00;97133.44;5043004;28;20395;-81
2023/11/07 09:14:52;;;;;;;3.95;1.40;;;;;;;6.97;100.00;97140.66;5046845;28;20466;-81
2023/11/07 09:17:20;;;;;;;2.10;1.60;;;;;;;7.02;100.00;97139.13;5048666;28;20550;-81
2023/11/07 09:19:46;;;;;;;1.35;1.25;;;;;;;7.11;100.00;97133.28;5045076;28;20399;-80
2023/11/07 09:22:13;;;;;;;1.27;1.10;;;;;;;7.22;100.00;97127.16;5046281;28;20399;-80
2023/11/07 09:24:39;;;;;;;1.30;1.20;;;;;;;7.37;100.00;97137.94;5044842;28;20469;-80
2023/11/07 09:27:07;;;;;;;1.83;1.30;;;;;;;7.51;100.00;97135.84;5044108;28;20491;-81
2023/11/07 09:29:34;;;;;;;2.30;1.30;;;;;;;7.53;100.00;97140.84;5043656;28;20475;-81
2023/11/07 09:32:03;;;;;;;1.27;1.17;;;;;;;7.64;100.00;97135.53;5043028;28;20898;-81
2023/11/07 09:34:33;;;;;;;2.08;1.40;;;;;;;7.61;100.00;97140.47;5041684;28;20525;-80
2023/11/07 09:36:59;;;;;;;2.42;1.40;;;;;;;7.73;100.00;97142.03;5042678;28;20411;-83
2023/11/07 09:39:29;;;;;;;2.77;1.40;;;;;;;7.67;100.00;97139.50;5024284;28;20524;-81
2023/11/07 09:41:58;;;;;;;2.20;1.20;;;;;;;7.89;100.00;97134.34;5051452;28;20411;-83
2023/11/07 09:44:24;;;;;;;2.72;1.20;;;;;;;8.24;100.00;97140.16;5043488;28;20886;-84
2023/11/07 09:46:51;;;;;;;1.58;0.98;;;;;;;9.20;100.00;97138.75;5043223;28;20653;-83
2023/11/07 09:49:19;;;;;;;1.10;0.90;;;;;;;10.05;100.00;97150.38;5043330;28;20450;-84
2023/11/07 09:51:50;;;;;;;1.60;0.82;;;;;;;10.70;100.00;97151.88;5044775;28;20414;-85
2023/11/07 09:54:24;;;;;;;1.73;0.88;;;;;;;11.39;100.00;97148.97;5044285;28;20399;-83
2023/11/07 09:56:54;;;;;;;1.40;1.00;;;;;;;10.77;100.00;97139.19;5027015;28;20767;-84
2023/11/07 09:59:29;;;;;;;1.63;0.85;;;;;;;10.47;100.00;97145.13;5026257;28;20403;-84
2023/11/07 10:01:56;;;;;;;2.25;1.20;;;;;;;10.14;100.00;97142.78;5044385;28;20418;-83
2023/11/07 10:04:25;;;;;;;1.85;1.10;;;;;;;9.85;100.00;97137.78;5048542;28;20405;-83
2023/11/07 10:06:54;;;;;;;1.50;0.90;;;;;;;9.81;100.00;97139.34;5044133;28;20785;-84
2023/11/07 10:09:21;;;;;;;2.97;1.20;;;;;;;9.60;100.00;97138.38;5046221;28;20449;-84
2023/11/07 10:11:53;;;;;;;1.20;0.90;;;;;;;9.46;100.00;97139.84;5044952;28;20402;-82
2023/11/07 10:14:20;;;;;;;6.80;1.50;;;;;;;9.32;100.00;97138.63;5044024;28;20906;-83
2023/11/07 10:16:50;;;;;;;1.58;1.00;;;;;;;9.18;100.00;97127.63;5044752;28;20395;-82
2023/11/07 10:19:20;;;;;;;1.80;1.08;;;;;;;9.05;100.00;97132.50;5042636;28;20399;-83
2023/11/07 10:21:46;;;;;;;4.00;1.08;;;;;;;8.96;100.00;97131.34;5044018;28;20759;-83
2023/11/07 10:24:14;;;;;;;1.40;1.10;;;;;;;8.97;100.00;97128.47;5043757;28;20395;-82
2023/11/07 10:26:53;;;;;;;1.15;1.05;;;;;;;9.13;100.00;97142.63;5038532;28;20899;-82
2023/11/07 10:29:25;;;;;;;1.67;1.00;;;;;;;9.56;100.00;97139.09;5036437;28;20563;-83
2023/11/07 10:32:09;;;;;;;1.53;1.10;;;;;;;9.46;100.00;97123.97;5041930;28;20467;-82
2023/11/07 10:34:39;;;;;;;0.90;0.90;;;;;;;9.63;100.00;97129.94;5007273;28;20526;-82
2023/11/07 10:37:05;;;;;;;1.20;1.10;;;;;;;9.77;100.00;97140.91;5023421;28;20409;-84
2023/11/07 10:39:35;;;;;;;3.08;0.93;;;;;;;9.77;100.00;97138.28;5027328;28;20395;-83
2023/11/07 10:42:18;;;;;;;1.50;0.80;;;;;;;10.06;100.00;97136.91;5033533;28;20399;-83
2023/11/07 10:44:45;;;;;;;2.20;1.10;;;;;;;10.07;100.00;97137.72;5024751;28;20411;-83
2023/11/07 10:47:12;;;;;;;1.10;0.82;;;;;;;10.18;100.00;97149.19;5041938;28;20406;-81
2023/11/07 10:49:39;;;;;;;1.40;0.90;;;;;;;10.45;100.00;97144.59;5044939;28;20493;-84
2023/11/07 10:52:06;;;;;;;1.10;0.85;;;;;;;10.49;100.00;97150.97;5041651;28;20399;-82
2023/11/07 10:54:34;;;;;;;0.80;0.80;;;;;;;10.34;100.00;97142.94;5041152;28;20541;-82
2023/11/07 10:57:04;;;;;;;1.10;0.82;;;;;;;10.08;100.00;97139.28;5043483;28;20830;-81
2023/11/07 10:59:34;;;;;;;1.60;0.98;;;;;;;9.61;100.00;97139.97;5041901;28;20791;-81
2023/11/07 11:02:02;;;;;;;1.00;0.90;;;;;;;9.24;100.00;97142.53;5042573;28;20406;-81
2023/11/07 11:04:34;;;;;;;2.53;1.00;;;;;;;8.77;100.00;97141.44;5037423;28;20423;-82
2023/11/07 11:07:02;;;;;;;8.70;1.20;;;;;;;8.27;100.00;97155.47;5038517;28;21107;-80
2023/11/07 11:09:29;;;;;;;1.75;1.00;;;;;;;7.90;100.00;97141.19;5033549;28;20401;-80
2023/11/07 11:11:59;;;;;;;1.00;1.00;;;;;;;7.63;100.00;97154.22;5021260;28;20749;-79
2023/11/07 11:14:26;;;;;;;3.63;1.10;;;;;;;7.47;100.00;97149.72;5020570;28;20396;-80
2023/11/07 11:16:58;;;;;;;1.30;1.10;;;;;;;7.38;100.00;97141.38;5020790;28;20395;-80
2023/11/07 11:19:33;;;;;;;1.17;1.10;;;;;;;7.39;100.00;97140.34;5020715;28;20749;-80
2023/11/07 11:22:08;;;;;;;1.55;1.10;;;;;;;7.41;100.00;97140.94;5021767;28;20399;-80
2023/11/07 11:24:56;;;;;;;2.93;1.30;;;;;;;7.42;100.00;97139.09;5021420;28;20431;-81
2023/11/07 11:27:30;;;;;;;2.00;1.30;;;;;;;7.41;100.00;97140.94;5021560;28;20423;-80
2023/11/07 11:29:56;;;;;;;1.75;1.30;;;;;;;7.40;100.00;97136.69;5031534;28;20487;-81
2023/11/07 11:32:27;;;;;;;1.65;1.15;;;;;;;7.46;100.00;97134.94;5040471;28;20395;-79
2023/11/07 11:34:58;;;;;;;1.90;1.42;;;;;;;7.42;100.00;97141.72;5041098;28;20435;-79